Terminal Aerodrome Forecast
Issued by NWS

Home | Current Version | Previous Version | Text Only | Print | Product List | Glossary On
Versions: 1 2 3 4 5 6 7 8 9 10 11 12 13 14 15 16 17 18 19 20 21 22 23 24 25 26 27 28 29 30 31 32 33
000
FTUS43 KGLD 092300
TAFMCK
TAF
KMCK 092334Z 1000/1024 16014G22KT P6SM SKC
     FM100130 15016G25KT P6SM VCTS SCT050CB BKN250
      TEMPO 1002/1004 VRB20G35KT -TSRA
     FM100500 12012KT P6SM SCT120
     FM101500 15013G22KT P6SM SCT100=

USA.gov is the U.S. government's official web portal to all federal, state and local government web resources and services.